Time;durP1;ratioP1;P1;durP2;ratioP2;P2;SDS_P1;SDS_P2;PMS_P1;PMS_P2;Temp;Humidity;BMP_temperature;BMP_pressure;BME280_temperature;BME280_humidity;BME280_pressure;Samples;Min_cycle;Max_cycle;Signal;HPM_P1;HPM_P2
2022/09/05 00:00:02;;;;;;;2.72;1.55;;;;;;;14.66;100.00;99388.03;5110925;28;20043;-85
2022/09/05 00:02:46;;;;;;;7.90;1.80;;;;;;;14.56;100.00;99398.50;5109402;28;20054;-85
2022/09/05 00:05:32;;;;;;;3.08;1.88;;;;;;;14.43;100.00;99391.06;5102579;28;20046;-85
2022/09/05 00:08:07;;;;;;;6.18;1.80;;;;;;;14.27;100.00;99394.16;5096513;27;20051;-85
2022/09/05 00:10:44;;;;;;;2.08;1.33;;;;;;;14.28;100.00;99407.63;5110748;28;20055;-85
2022/09/05 00:13:18;;;;;;;3.80;1.85;;;;;;;14.33;100.00;99407.00;5102056;28;20071;-85
2022/09/05 00:16:00;;;;;;;2.17;1.73;;;;;;;14.44;100.00;99409.19;5113386;28;20757;-85
2022/09/05 00:18:45;;;;;;;3.58;1.70;;;;;;;14.24;100.00;99394.56;5108384;28;20455;-85
2022/09/05 00:21:21;;;;;;;2.25;1.90;;;;;;;14.27;100.00;99405.94;5114395;28;20051;-85
2022/09/05 00:24:03;;;;;;;4.28;1.83;;;;;;;14.22;100.00;99396.66;5112289;28;20051;-85
2022/09/05 00:26:44;;;;;;;4.57;1.88;;;;;;;14.27;100.00;99410.56;5111355;28;20043;-85
2022/09/05 00:29:22;;;;;;;2.28;1.63;;;;;;;14.24;100.00;99402.75;5115462;28;20515;-85
2022/09/05 00:32:01;;;;;;;3.72;2.13;;;;;;;14.30;100.00;99399.22;5114728;28;20050;-85
2022/09/05 00:34:54;;;;;;;2.58;1.88;;;;;;;14.22;100.00;99399.41;5108172;28;20124;-85
2022/09/05 00:37:32;;;;;;;5.78;1.90;;;;;;;14.29;100.00;99403.00;5112928;28;20044;-85
2022/09/05 00:40:21;;;;;;;2.42;2.00;;;;;;;14.04;100.00;99403.50;5114355;28;20048;-85
2022/09/05 00:42:53;;;;;;;2.83;1.60;;;;;;;14.09;100.00;99411.09;5109910;28;20059;-85
2022/09/05 00:45:27;;;;;;;2.38;1.90;;;;;;;13.91;100.00;99398.81;5114338;28;20538;-85
2022/09/05 00:48:05;;;;;;;4.55;1.85;;;;;;;13.89;100.00;99389.97;5114264;28;20487;-85
2022/09/05 00:50:40;;;;;;;3.47;1.90;;;;;;;13.97;100.00;99410.81;5114345;28;20058;-85
2022/09/05 00:53:13;;;;;;;3.83;1.98;;;;;;;13.94;100.00;99403.00;5112338;28;20491;-85
2022/09/05 00:55:48;;;;;;;3.45;1.80;;;;;;;13.89;100.00;99395.41;5114113;28;20127;-85
2022/09/05 00:58:37;;;;;;;6.78;1.90;;;;;;;13.90;100.00;99382.63;5114348;28;20430;-85
2022/09/05 01:01:19;;;;;;;4.65;1.83;;;;;;;13.77;100.00;99380.63;5114075;28;20054;-85
2022/09/05 01:04:00;;;;;;;1.83;1.60;;;;;;;13.78;100.00;99405.03;5113553;28;20051;-85
2022/09/05 01:06:41;;;;;;;3.65;1.92;;;;;;;13.54;100.00;99383.63;5105241;28;20059;-84
2022/09/05 01:09:18;;;;;;;5.35;1.73;;;;;;;13.62;100.00;99395.28;5111277;28;20047;-84
2022/09/05 01:11:58;;;;;;;2.40;1.80;;;;;;;13.73;100.00;99384.81;5113692;28;20058;-85
2022/09/05 01:14:36;;;;;;;1.98;1.77;;;;;;;13.81;100.00;99390.13;5112651;27;20532;-84
2022/09/05 01:17:19;;;;;;;4.10;1.60;;;;;;;13.81;100.00;99371.84;5114105;28;20504;-85
2022/09/05 01:20:03;;;;;;;2.40;1.63;;;;;;;13.85;100.00;99393.28;5108071;28;20054;-84
2022/09/05 01:22:54;;;;;;;2.30;1.80;;;;;;;13.86;100.00;99408.66;5113264;28;20043;-85
2022/09/05 01:25:43;;;;;;;1.77;1.55;;;;;;;13.84;100.00;99403.38;5113329;27;20052;-85
2022/09/05 01:28:20;;;;;;;4.40;2.00;;;;;;;13.94;100.00;99405.75;5112368;28;20047;-84
2022/09/05 01:30:51;;;;;;;3.58;1.80;;;;;;;13.83;100.00;99389.94;5113412;28;20055;-85
2022/09/05 01:33:31;;;;;;;3.05;1.55;;;;;;;13.80;100.00;99392.03;5112902;28;20047;-85
2022/09/05 01:36:11;;;;;;;1.57;1.43;;;;;;;13.71;100.00;99403.28;5113700;28;20055;-85
2022/09/05 01:38:47;;;;;;;3.17;1.73;;;;;;;13.66;100.00;99395.69;5113742;28;20044;-85
2022/09/05 01:41:23;;;;;;;2.85;1.80;;;;;;;13.61;100.00;99393.56;5113305;28;20043;-85
2022/09/05 01:44:09;;;;;;;3.63;2.00;;;;;;;13.64;100.00;99389.59;5110730;28;20505;-85
2022/09/05 01:46:44;;;;;;;3.95;1.67;;;;;;;13.65;100.00;99385.81;5113212;28;20314;-85
2022/09/05 01:49:23;;;;;;;6.88;2.05;;;;;;;13.54;100.00;99391.84;5113483;28;20047;-85
2022/09/05 01:52:13;;;;;;;2.95;1.98;;;;;;;13.45;100.00;99378.31;5113320;28;20047;-85
2022/09/05 01:54:52;;;;;;;2.78;2.00;;;;;;;13.26;100.00;99359.84;5112752;28;20047;-85
2022/09/05 01:57:26;;;;;;;4.55;1.80;;;;;;;13.44;100.00;99379.38;5112508;28;20063;-84
2022/09/05 02:00:00;;;;;;;2.47;1.73;;;;;;;13.65;100.00;99382.25;5113437;28;20078;-85
2022/09/05 02:02:41;;;;;;;4.00;1.95;;;;;;;13.61;100.00;99373.63;5112444;28;20435;-85
2022/09/05 02:05:40;;;;;;;3.17;2.00;;;;;;;13.40;100.00;99367.16;5112340;28;20048;-85
2022/09/05 02:08:33;;;;;;;4.20;1.67;;;;;;;13.37;100.00;99358.50;5103561;28;20047;-85
2022/09/05 02:11:04;;;;;;;3.90;3.30;;;;;;;13.18;100.00;99352.66;5106934;28;20045;-84
2022/09/05 02:13:42;;;;;;;;;;;;;;;13.22;100.00;99364.88;5111094;28;20039;-85
2022/09/05 02:16:17;;;;;;;1.88;1.63;;;;;;;13.20;100.00;99371.56;5112916;28;20325;-85
2022/09/05 02:18:54;;;;;;;2.15;1.75;;;;;;;13.08;100.00;99354.88;5112573;28;20112;-85
2022/09/05 02:21:36;;;;;;;2.15;1.75;;;;;;;13.01;100.00;99364.91;5112899;28;20071;-85
2022/09/05 02:24:12;;;;;;;1.58;1.48;;;;;;;13.03;100.00;99363.66;5105588;28;20043;-85
2022/09/05 02:26:52;;;;;;;1.67;1.58;;;;;;;13.12;100.00;99361.63;5111323;28;20048;-85
2022/09/05 02:29:25;;;;;;;3.00;1.77;;;;;;;13.16;100.00;99362.06;5112748;28;20380;-85
2022/09/05 02:31:57;;;;;;;2.75;1.75;;;;;;;13.16;100.00;99359.34;5104150;28;20051;-85
2022/09/05 02:34:34;;;;;;;6.78;1.60;;;;;;;13.22;100.00;99353.97;5112017;28;20040;-84
2022/09/05 02:37:08;;;;;;;1.90;1.60;;;;;;;13.06;100.00;99352.34;5104903;28;20050;-85
2022/09/05 02:39:44;;;;;;;3.67;1.67;;;;;;;13.05;100.00;99344.34;5111476;28;20055;-84
2022/09/05 02:42:22;;;;;;;8.52;2.00;;;;;;;13.12;100.00;99350.72;5111498;28;20128;-84
2022/09/05 02:45:08;;;;;;;1.88;1.60;;;;;;;13.10;100.00;99341.88;5111939;28;20094;-85
2022/09/05 02:47:45;;;;;;;3.22;1.60;;;;;;;13.09;100.00;99354.69;5111824;28;20134;-85
2022/09/05 02:50:33;;;;;;;2.83;1.85;;;;;;;12.87;100.00;99342.94;5111930;28;20122;-84
2022/09/05 02:53:01;;;;;;;3.05;1.77;;;;;;;12.74;100.00;99340.94;5106454;28;20043;-84
2022/09/05 02:55:37;;;;;;;2.00;1.80;;;;;;;12.75;100.00;99349.94;5111950;28;20055;-84
2022/09/05 02:58:27;;;;;;;2.95;2.05;;;;;;;12.65;100.00;99327.63;5104647;28;20753;-85
2022/09/05 03:01:02;;;;;;;1.90;1.70;;;;;;;12.54;100.00;99342.59;5111630;28;20043;-84
2022/09/05 03:03:37;;;;;;;3.15;1.90;;;;;;;12.44;100.00;99339.38;5107304;28;20085;-85
2022/09/05 03:06:20;;;;;;;2.55;1.70;;;;;;;12.59;100.00;99358.41;5106504;28;20044;-84
2022/09/05 03:09:03;;;;;;;2.42;1.77;;;;;;;12.66;100.00;99356.56;5113634;28;20384;-84
2022/09/05 03:12:21;;;;;;;2.67;2.00;;;;;;;12.67;100.00;99366.44;5112430;28;20078;-85
2022/09/05 03:15:25;;;;;;;2.25;1.83;;;;;;;12.44;100.00;99351.09;5111648;28;20056;-85
2022/09/05 03:18:12;;;;;;;2.60;1.60;;;;;;;12.31;100.00;99370.03;5034617;28;20057;-84
2022/09/05 03:21:12;;;;;;;2.40;1.60;;;;;;;12.23;100.00;99356.53;5111449;28;20055;-84
2022/09/05 03:24:15;;;;;;;2.10;1.80;;;;;;;12.36;100.00;99375.72;5102604;28;20059;-84
2022/09/05 03:27:00;;;;;;;7.82;2.25;;;;;;;12.53;100.00;99384.56;5111082;28;20120;-84
2022/09/05 03:29:44;;;;;;;2.20;1.67;;;;;;;12.45;100.00;99382.78;5111293;28;20060;-84
2022/09/05 03:32:40;;;;;;;5.05;2.03;;;;;;;12.51;100.00;99381.16;5101945;28;20403;-84
2022/09/05 03:35:48;;;;;;;3.00;1.80;;;;;;;12.42;100.00;99365.97;5111118;28;20399;-84
2022/09/05 03:39:01;;;;;;;5.00;2.33;;;;;;;12.31;100.00;99381.75;5089422;28;20043;-84
2022/09/05 03:41:43;;;;;;;4.00;1.80;;;;;;;12.31;100.00;99372.75;5057199;28;20134;-84
2022/09/05 03:44:23;;;;;;;2.00;1.80;;;;;;;12.19;100.00;99377.84;5110457;28;20035;-84
2022/09/05 03:47:12;;;;;;;2.97;2.45;;;;;;;11.95;100.00;99370.81;5109232;28;20070;-84
2022/09/05 03:50:05;;;;;;;3.60;2.05;;;;;;;12.12;100.00;99369.59;5097804;28;20044;-84
2022/09/05 03:52:42;;;;;;;3.20;2.38;;;;;;;12.13;100.00;99362.25;5087508;28;20437;-84
2022/09/05 03:55:22;;;;;;;3.67;2.42;;;;;;;12.19;100.00;99373.25;5110871;28;20151;-84
2022/09/05 03:58:09;;;;;;;2.17;1.98;;;;;;;12.32;100.00;99369.84;5111277;28;20478;-84
2022/09/05 04:00:37;;;;;;;2.50;2.20;;;;;;;12.51;100.00;99383.88;5104303;28;20043;-84
2022/09/05 04:03:14;;;;;;;5.13;2.35;;;;;;;12.56;100.00;99382.28;5109654;28;20491;-84
2022/09/05 04:05:46;;;;;;;4.70;2.63;;;;;;;12.59;100.00;99378.31;5109705;28;20047;-84
2022/09/05 04:08:20;;;;;;;3.72;2.22;;;;;;;12.49;100.00;99381.34;5110689;28;20160;-84
2022/09/05 04:10:55;;;;;;;3.70;2.78;;;;;;;12.41;100.00;99376.03;5110789;28;20058;-84
2022/09/05 04:13:29;;;;;;;4.57;2.28;;;;;;;12.32;100.00;99383.47;5110243;28;20055;-84
2022/09/05 04:16:11;;;;;;;3.58;2.40;;;;;;;12.41;100.00;99386.94;5110065;28;20047;-84
2022/09/05 04:18:42;;;;;;;2.70;2.00;;;;;;;12.38;100.00;99381.88;5107310;28;20054;-84
2022/09/05 04:21:15;;;;;;;2.60;2.17;;;;;;;12.38;100.00;99371.78;5104834;28;20052;-84
2022/09/05 04:23:51;;;;;;;3.47;2.42;;;;;;;12.21;100.00;99375.78;5110107;28;20044;-84
2022/09/05 04:26:30;;;;;;;3.17;2.50;;;;;;;12.13;100.00;99373.16;5111014;28;20454;-84
2022/09/05 04:29:09;;;;;;;4.68;2.17;;;;;;;12.18;100.00;99376.19;5109544;28;20047;-84
2022/09/05 04:31:47;;;;;;;4.35;2.38;;;;;;;12.06;100.00;99366.78;5107724;28;20046;-84
2022/09/05 04:34:25;;;;;;;2.65;2.28;;;;;;;12.08;100.00;99368.28;5110082;28;20044;-85
2022/09/05 04:37:01;;;;;;;5.57;2.47;;;;;;;12.26;100.00;99373.31;5110730;28;20062;-85
2022/09/05 04:39:29;;;;;;;4.32;2.10;;;;;;;12.27;100.00;99364.13;5102697;28;20058;-85
2022/09/05 04:42:01;;;;;;;3.17;2.25;;;;;;;12.35;100.00;99364.00;5110893;28;20467;-84
2022/09/05 04:44:33;;;;;;;2.38;2.17;;;;;;;12.44;100.00;99378.38;5109473;28;20079;-85
2022/09/05 04:47:08;;;;;;;5.20;2.40;;;;;;;12.47;100.00;99382.59;5106704;28;20453;-85
2022/09/05 04:49:40;;;;;;;2.33;2.13;;;;;;;12.57;100.00;99386.72;5103410;28;20061;-85
2022/09/05 04:52:39;;;;;;;6.03;2.60;;;;;;;12.56;100.00;99378.72;5109578;28;20040;-85
2022/09/05 04:55:10;;;;;;;4.53;2.10;;;;;;;12.59;100.00;99372.03;5097245;28;20499;-85
2022/09/05 04:57:44;;;;;;;2.97;2.10;;;;;;;12.51;100.00;99390.22;5101777;28;20487;-85
2022/09/05 05:00:21;;;;;;;2.88;2.30;;;;;;;12.60;100.00;99390.06;5110086;28;20047;-85
2022/09/05 05:02:54;;;;;;;2.35;2.13;;;;;;;12.41;100.00;99381.47;5113828;28;20143;-85
2022/09/05 05:05:23;;;;;;;2.45;2.10;;;;;;;12.47;100.00;99402.53;5111124;28;20071;-85
2022/09/05 05:07:57;;;;;;;4.60;2.33;;;;;;;12.46;100.00;99408.16;5113991;28;20040;-85
2022/09/05 05:10:33;;;;;;;2.58;2.15;;;;;;;12.41;100.00;99392.38;5109479;28;20143;-85
2022/09/05 05:13:07;;;;;;;5.10;2.28;;;;;;;12.39;100.00;99402.66;5113382;28;20053;-85
2022/09/05 05:15:46;;;;;;;7.75;2.45;;;;;;;12.41;100.00;99411.47;5113995;28;20074;-83
2022/09/05 05:18:21;;;;;;;4.18;2.55;;;;;;;12.41;100.00;99391.56;5113877;28;20385;-83
2022/09/05 05:20:56;;;;;;;3.47;2.67;;;;;;;12.61;100.00;99405.41;5110909;28;20054;-83
2022/09/05 05:23:32;;;;;;;3.53;2.58;;;;;;;12.67;100.00;99408.19;5110508;28;20044;-84
2022/09/05 05:26:01;;;;;;;2.78;2.47;;;;;;;12.72;100.00;99404.88;5112013;28;20054;-83
2022/09/05 05:28:41;;;;;;;4.32;2.30;;;;;;;12.66;100.00;99398.34;5112763;28;20040;-84
2022/09/05 05:31:13;;;;;;;4.63;2.30;;;;;;;12.83;100.00;99398.94;5108525;28;20251;-83
2022/09/05 05:33:41;;;;;;;3.67;2.10;;;;;;;12.84;100.00;99399.78;5111814;28;20661;-83
2022/09/05 05:36:16;;;;;;;2.50;2.10;;;;;;;12.98;100.00;99404.34;5113203;28;20043;-84
2022/09/05 05:38:48;;;;;;;7.40;2.15;;;;;;;13.21;100.00;99408.75;5113342;28;20058;-83
2022/09/05 05:41:20;;;;;;;2.65;1.92;;;;;;;13.32;100.00;99407.38;5113871;28;20399;-83
2022/09/05 05:43:49;;;;;;;3.45;1.85;;;;;;;13.35;100.00;99410.56;5112487;28;20544;-83
2022/09/05 05:46:29;;;;;;;3.42;2.45;;;;;;;13.40;100.00;99420.94;5113359;28;20067;-84
2022/09/05 05:49:08;;;;;;;2.88;2.22;;;;;;;13.42;100.00;99418.84;5112216;28;20044;-83
2022/09/05 05:51:43;;;;;;;2.42;2.20;;;;;;;13.51;100.00;99412.19;5112754;28;20050;-84
2022/09/05 05:54:23;;;;;;;3.55;2.30;;;;;;;13.59;100.00;99411.19;5112788;27;20043;-84
2022/09/05 05:57:16;;;;;;;;;;;;;;;13.81;100.00;99434.69;5112558;28;20353;-84
2022/09/05 05:59:57;;;;;;;5.07;2.25;;;;;;;14.05;100.00;99421.59;5112644;27;19924;-84
2022/09/05 06:03:01;;;;;;;4.50;2.50;;;;;;;14.36;100.00;99433.13;5111117;28;20057;-84
2022/09/05 06:05:45;;;;;;;2.95;2.28;;;;;;;14.35;100.00;99435.00;5112435;28;20487;-85
2022/09/05 06:08:34;;;;;;;3.65;2.63;;;;;;;14.20;100.00;99434.31;5105670;28;20086;-85
2022/09/05 06:11:33;;;;;;;3.80;2.45;;;;;;;14.25;100.00;99424.44;5105583;28;20043;-85
2022/09/05 06:14:26;;;;;;;6.22;2.42;;;;;;;14.38;100.00;99433.75;5111594;28;20040;-85
2022/09/05 06:17:35;;;;;;;6.78;2.60;;;;;;;14.52;100.00;99430.88;5112607;28;20047;-85
2022/09/05 06:20:39;;;;;;;3.53;2.58;;;;;;;14.62;100.00;99437.91;5103512;28;20060;-85
2022/09/05 06:23:50;;;;;;;4.13;2.70;;;;;;;14.92;100.00;99429.34;5108484;28;20139;-86
2022/09/05 06:27:02;;;;;;;3.22;2.90;;;;;;;15.28;100.00;99426.28;5096147;27;20054;-85
2022/09/05 06:29:37;;;;;;;4.93;2.53;;;;;;;15.60;97.04;99437.44;5101970;28;20118;-85
2022/09/05 06:32:17;;;;;;;3.50;2.85;;;;;;;15.80;94.27;99418.25;5103506;28;20503;-85
2022/09/05 06:35:02;;;;;;;3.38;2.38;;;;;;;16.24;90.90;99440.53;5112373;27;20056;-85
2022/09/05 06:37:41;;;;;;;20.10;3.03;;;;;;;16.53;88.87;99430.97;5110289;28;20048;-86
2022/09/05 06:40:19;;;;;;;8.73;2.78;;;;;;;16.68;88.77;99416.97;5112059;28;20125;-85
2022/09/05 06:43:07;;;;;;;9.95;2.60;;;;;;;17.11;85.03;99441.03;5111553;28;20398;-85
2022/09/05 06:45:58;;;;;;;2.63;2.28;;;;;;;17.29;83.38;99420.19;5112500;28;20137;-85
2022/09/05 06:48:30;;;;;;;5.38;2.42;;;;;;;17.90;81.23;99428.81;5106624;28;20070;-85
2022/09/05 06:51:21;;;;;;;2.95;2.50;;;;;;;18.10;79.19;99434.13;5111997;28;20048;-85
2022/09/05 06:54:03;;;;;;;3.63;2.55;;;;;;;18.13;78.77;99437.25;5111416;27;20392;-85
2022/09/05 06:56:50;;;;;;;15.70;3.05;;;;;;;18.01;79.62;99444.56;5112110;28;20043;-85
2022/09/05 06:59:53;;;;;;;7.82;2.95;;;;;;;18.16;79.30;99449.72;5104820;28;20043;-85
2022/09/05 07:02:23;;;;;;;3.88;2.58;;;;;;;18.26;79.31;99449.19;5110572;27;20051;-86
2022/09/05 07:05:03;;;;;;;5.78;3.20;;;;;;;18.17;79.48;99448.63;5109845;28;20059;-85
2022/09/05 07:07:41;;;;;;;4.38;2.80;;;;;;;17.92;81.12;99438.53;5105602;28;20039;-84
2022/09/05 07:10:17;;;;;;;3.83;2.70;;;;;;;17.98;81.94;99451.38;5111597;28;20059;-84
2022/09/05 07:12:49;;;;;;;5.68;3.08;;;;;;;18.02;81.45;99433.34;5108937;28;20047;-84
2022/09/05 07:15:33;;;;;;;5.25;3.13;;;;;;;18.23;80.32;99442.22;5109782;28;20066;-84
2022/09/05 07:18:07;;;;;;;4.78;2.25;;;;;;;18.38;80.01;99442.69;5108297;28;20047;-84
2022/09/05 07:20:40;;;;;;;3.15;2.50;;;;;;;18.47;79.13;99423.09;5108802;28;20062;-84
2022/09/05 07:23:18;;;;;;;3.58;2.30;;;;;;;18.80;78.73;99433.69;5110865;28;20495;-85
2022/09/05 07:25:49;;;;;;;3.53;2.50;;;;;;;18.81;78.49;99438.13;5108755;28;20070;-85
2022/09/05 07:28:20;;;;;;;5.28;2.47;;;;;;;18.75;79.58;99436.31;5111264;28;20047;-84
2022/09/05 07:30:49;;;;;;;3.10;2.45;;;;;;;19.00;78.61;99427.09;5111699;27;20478;-85
2022/09/05 07:33:20;;;;;;;2.90;2.25;;;;;;;19.26;77.10;99451.53;5110764;28;20125;-84
2022/09/05 07:35:50;;;;;;;3.20;2.45;;;;;;;19.45;76.96;99451.44;5111862;28;20055;-84
2022/09/05 07:38:20;;;;;;;5.38;2.45;;;;;;;19.53;76.40;99444.78;5110308;28;20047;-84
2022/09/05 07:40:53;;;;;;;3.10;2.03;;;;;;;19.73;74.47;99448.03;5111358;28;20051;-84
2022/09/05 07:43:26;;;;;;;3.03;1.70;;;;;;;19.96;73.43;99443.63;5110840;28;20051;-85
2022/09/05 07:46:10;;;;;;;1.90;1.40;;;;;;;19.99;71.91;99443.16;5111185;28;20544;-85
2022/09/05 07:48:41;;;;;;;5.30;1.65;;;;;;;20.17;70.72;99444.94;5094112;28;20544;-85
2022/09/05 07:51:13;;;;;;;3.75;1.45;;;;;;;20.09;69.40;99448.91;5110733;28;20050;-85
2022/09/05 07:53:43;;;;;;;4.95;1.38;;;;;;;20.13;69.96;99441.84;5110213;28;20069;-85
2022/09/05 07:56:10;;;;;;;6.80;2.00;;;;;;;20.33;70.21;99446.13;5111395;28;20054;-85
2022/09/05 07:58:43;;;;;;;12.07;1.75;;;;;;;20.44;70.02;99431.44;5110937;28;20406;-85
2022/09/05 08:01:12;;;;;;;20.50;2.15;;;;;;;20.71;68.95;99444.75;5110392;28;20046;-84
2022/09/05 08:03:40;;;;;;;18.67;3.13;;;;;;;20.75;67.44;99439.59;5109882;28;20043;-85
2022/09/05 08:06:16;;;;;;;5.65;1.52;;;;;;;20.92;66.93;99442.41;5109690;28;20470;-85
2022/09/05 08:08:52;;;;;;;5.45;1.50;;;;;;;20.92;65.68;99450.69;5110676;28;20051;-84
2022/09/05 08:11:22;;;;;;;5.38;1.60;;;;;;;20.80;65.81;99440.50;5111455;27;20126;-85
2022/09/05 08:13:57;;;;;;;9.57;1.85;;;;;;;21.02;65.66;99446.22;5109073;28;20423;-85
2022/09/05 08:16:26;;;;;;;4.53;1.40;;;;;;;21.09;65.26;99437.78;5111037;28;20071;-85
2022/09/05 08:19:02;;;;;;;4.45;1.83;;;;;;;21.14;64.81;99434.28;5110828;28;20052;-85
2022/09/05 08:21:38;;;;;;;8.75;2.10;;;;;;;21.08;64.79;99425.03;5110828;28;20056;-85
2022/09/05 08:24:10;;;;;;;2.90;1.42;;;;;;;21.24;65.00;99447.44;5110186;28;20134;-84
2022/09/05 08:26:42;;;;;;;3.40;1.63;;;;;;;21.29;64.79;99431.78;5111163;28;20056;-85
2022/09/05 08:29:20;;;;;;;3.05;2.00;;;;;;;21.36;64.31;99426.94;5109716;28;20043;-85
2022/09/05 08:31:51;;;;;;;5.25;1.65;;;;;;;21.47;62.91;99416.03;5110766;28;20494;-85
2022/09/05 08:34:22;;;;;;;4.68;1.30;;;;;;;21.44;62.80;99422.06;5110623;28;20044;-85
2022/09/05 08:36:50;;;;;;;6.10;1.42;;;;;;;21.59;64.11;99419.63;5113649;28;20047;-85
2022/09/05 08:39:20;;;;;;;8.82;1.63;;;;;;;21.86;62.29;99421.66;5114731;28;20051;-85
2022/09/05 08:42:06;;;;;;;4.15;1.40;;;;;;;21.98;61.61;99422.44;5114225;28;20051;-84
2022/09/05 08:44:39;;;;;;;5.28;1.67;;;;;;;22.13;61.19;99420.97;5107267;28;20399;-85
2022/09/05 08:47:18;;;;;;;12.20;1.85;;;;;;;22.33;60.54;99428.78;5114866;28;20102;-85
2022/09/05 08:50:08;;;;;;;9.15;1.50;;;;;;;22.28;60.95;99433.13;5114568;28;20043;-85
2022/09/05 08:52:52;;;;;;;8.45;1.27;;;;;;;22.39;60.97;99400.88;5105288;28;20408;-86
2022/09/05 08:55:30;;;;;;;5.50;1.73;;;;;;;22.48;59.36;99420.66;5114491;28;20063;-85
2022/09/05 08:58:19;;;;;;;3.50;1.40;;;;;;;22.59;59.33;99416.09;5107119;28;20040;-85
2022/09/05 09:00:54;;;;;;;10.23;2.13;;;;;;;22.71;59.11;99410.41;5111978;28;20065;-84
2022/09/05 09:03:28;;;;;;;4.22;1.58;;;;;;;23.05;57.74;99413.84;5113593;28;20046;-85
2022/09/05 09:06:22;;;;;;;5.53;1.38;;;;;;;23.09;56.67;99400.28;5105310;28;20051;-85
2022/09/05 09:09:04;;;;;;;5.00;1.58;;;;;;;23.21;56.89;99400.16;5114109;28;20162;-85
2022/09/05 09:11:34;;;;;;;1.85;1.17;;;;;;;23.23;55.74;99392.41;5108524;28;20399;-85
2022/09/05 09:14:29;;;;;;;5.18;1.25;;;;;;;23.48;55.19;99405.69;5111031;28;20048;-85
2022/09/05 09:17:03;;;;;;;1.42;1.23;;;;;;;23.50;54.72;99396.00;5114316;27;20047;-85
2022/09/05 09:19:44;;;;;;;4.03;1.52;;;;;;;23.49;55.45;99382.38;5114164;28;20047;-85
2022/09/05 09:22:20;;;;;;;4.55;1.50;;;;;;;23.82;54.03;99397.91;5113774;28;20051;-85
2022/09/05 09:24:56;;;;;;;7.43;1.38;;;;;;;23.84;53.69;99394.84;5112724;27;20426;-85
2022/09/05 09:27:32;;;;;;;2.45;1.38;;;;;;;23.90;53.25;99393.81;5090458;28;20468;-85
2022/09/05 09:30:04;;;;;;;2.90;1.00;;;;;;;23.97;53.43;99383.31;5111825;28;20113;-85
2022/09/05 09:32:43;;;;;;;2.30;1.30;;;;;;;24.32;53.62;99394.91;5113615;28;20380;-85
2022/09/05 09:35:19;;;;;;;5.47;1.38;;;;;;;24.59;50.78;99394.78;5113721;28;20056;-85
2022/09/05 09:38:17;;;;;;;3.92;1.20;;;;;;;24.61;50.60;99372.25;5113810;27;20242;-85
2022/09/05 09:41:12;;;;;;;6.25;1.80;;;;;;;25.04;49.99;99372.94;5105442;28;20914;-85
2022/09/05 09:44:23;;;;;;;3.40;1.08;;;;;;;25.31;48.05;99361.59;5110548;28;20043;-85
2022/09/05 09:46:52;;;;;;;3.08;1.20;;;;;;;25.37;47.96;99368.00;5007990;28;20053;-84
2022/09/05 09:49:40;;;;;;;7.40;1.30;;;;;;;25.52;47.88;99381.06;5105438;28;20066;-86
2022/09/05 09:52:38;;;;;;;2.60;1.33;;;;;;;25.57;47.42;99367.16;5111262;28;20043;-85
2022/09/05 09:55:47;;;;;;;5.70;1.20;;;;;;;25.56;47.25;99362.69;5090553;28;20510;-85
2022/09/05 09:58:43;;;;;;;2.65;1.40;;;;;;;25.86;47.61;99372.94;5113382;28;20043;-85
2022/09/05 10:01:21;;;;;;;4.45;1.33;;;;;;;25.64;46.49;99355.72;5108639;28;20044;-85
2022/09/05 10:04:18;;;;;;;5.88;1.20;;;;;;;25.74;47.20;99359.34;5102413;28;20422;-86
2022/09/05 10:07:21;;;;;;;6.07;1.80;;;;;;;25.75;46.65;99362.97;5111166;27;20062;-83
2022/09/05 10:10:06;;;;;;;1.73;1.42;;;;;;;25.85;45.22;99354.59;5099351;28;20043;-84
2022/09/05 10:13:05;;;;;;;2.08;1.10;;;;;;;26.02;45.79;99362.66;5111996;28;20134;-85
2022/09/05 10:15:46;;;;;;;3.17;1.48;;;;;;;26.09;46.95;99365.13;5112813;28;20048;-84
2022/09/05 10:18:31;;;;;;;2.83;1.10;;;;;;;26.18;45.57;99352.31;5112069;28;20046;-84
2022/09/05 10:21:36;;;;;;;3.88;1.25;;;;;;;26.17;44.28;99345.06;5112197;28;20143;-84
2022/09/05 10:24:39;;;;;;;2.03;1.20;;;;;;;26.41;44.39;99352.78;5093455;28;20665;-84
2022/09/05 10:27:32;;;;;;;1.88;1.15;;;;;;;26.30;44.19;99338.88;5099656;28;20070;-85
2022/09/05 10:30:19;;;;;;;2.70;1.30;;;;;;;26.59;43.72;99362.47;5105722;27;20399;-84
2022/09/05 10:33:09;;;;;;;2.35;1.13;;;;;;;26.51;43.12;99349.91;5117398;28;20077;-85
2022/09/05 10:35:36;;;;;;;;;;;;;;;26.48;43.36;99347.72;5113905;28;20075;-85
2022/09/05 10:38:10;;;;;;;2.25;1.30;;;;;;;26.50;42.83;99337.13;5119753;28;19924;-85
2022/09/05 10:40:39;;;;;;;3.45;1.05;;;;;;;26.89;42.66;99346.69;5116015;27;20483;-85
2022/09/05 10:43:15;;;;;;;1.95;1.38;;;;;;;26.92;42.26;99341.38;5114434;27;20138;-84
2022/09/05 10:45:49;;;;;;;8.32;1.60;;;;;;;27.18;42.07;99335.59;5112352;27;20426;-84
2022/09/05 10:48:23;;;;;;;4.10;1.30;;;;;;;27.12;41.88;99325.63;5112247;28;20044;-84
2022/09/05 10:50:56;;;;;;;3.50;1.10;;;;;;;27.27;41.09;99328.28;5112316;28;20050;-85
2022/09/05 10:53:42;;;;;;;2.10;1.17;;;;;;;27.14;40.76;99315.00;5110281;28;20054;-86
2022/09/05 10:56:13;;;;;;;4.68;1.30;;;;;;;27.23;40.23;99318.00;5107635;28;20055;-86
2022/09/05 10:58:58;;;;;;;2.22;1.17;;;;;;;27.19;40.34;99293.47;5111719;28;20052;-85
2022/09/05 11:01:33;;;;;;;3.03;1.50;;;;;;;27.19;40.52;99307.41;5111968;28;20039;-85
2022/09/05 11:04:12;;;;;;;5.53;1.10;;;;;;;27.42;41.26;99293.03;5110104;28;20043;-85
2022/09/05 11:06:54;;;;;;;1.77;1.15;;;;;;;27.58;40.23;99299.28;5111867;28;20055;-85
2022/09/05 11:09:40;;;;;;;2.88;1.20;;;;;;;27.60;39.72;99295.06;5111757;28;20059;-85
2022/09/05 11:12:31;;;;;;;1.08;1.05;;;;;;;27.76;37.91;99292.09;5102685;28;20039;-85
2022/09/05 11:15:02;;;;;;;2.05;1.27;;;;;;;27.93;36.40;99295.28;5111781;28;20040;-84
2022/09/05 11:17:37;;;;;;;1.20;1.00;;;;;;;27.99;37.67;99288.53;5109993;28;20048;-85
2022/09/05 11:20:45;;;;;;;2.92;1.10;;;;;;;28.12;37.59;99297.31;5104625;28;20051;-85
2022/09/05 11:23:18;;;;;;;2.63;1.08;;;;;;;28.33;37.40;99293.13;5104254;28;20048;-84
2022/09/05 11:25:52;;;;;;;2.95;1.10;;;;;;;28.47;36.29;99284.84;5111455;28;20142;-85
2022/09/05 11:28:29;;;;;;;1.55;1.08;;;;;;;28.64;34.48;99287.16;5111926;27;20047;-85
2022/09/05 11:31:00;;;;;;;1.15;1.05;;;;;;;28.76;32.57;99300.69;5111021;28;20135;-85
2022/09/05 11:34:03;;;;;;;3.83;1.10;;;;;;;28.87;32.08;99278.97;5110989;28;20559;-85
2022/09/05 11:36:33;;;;;;;2.15;1.10;;;;;;;28.89;32.93;99280.34;5087407;28;20096;-85
2022/09/05 11:39:08;;;;;;;2.45;1.00;;;;;;;28.81;32.98;99289.41;5111351;28;20048;-85
2022/09/05 11:42:02;;;;;;;2.25;1.10;;;;;;;29.00;32.29;99269.81;5111465;28;20126;-85
2022/09/05 11:44:35;;;;;;;2.25;1.17;;;;;;;29.20;32.14;99270.59;5095627;28;20484;-86
2022/09/05 11:47:48;;;;;;;2.40;1.40;;;;;;;29.48;31.43;99288.34;5109997;28;20039;-86
2022/09/05 11:50:45;;;;;;;2.60;1.17;;;;;;;29.29;32.39;99279.97;5028291;28;20688;-85
2022/09/05 11:53:54;;;;;;;2.45;1.10;;;;;;;29.08;32.98;99277.50;5105455;28;20394;-85
2022/09/05 11:56:42;;;;;;;1.45;1.00;;;;;;;29.25;31.76;99276.97;5107540;28;20048;-85
2022/09/05 11:59:44;;;;;;;1.77;1.10;;;;;;;29.00;31.49;99282.97;5110892;28;20062;-85
2022/09/05 12:02:35;;;;;;;2.00;1.30;;;;;;;29.01;32.38;99267.84;5102107;28;20068;-84
2022/09/05 12:05:51;;;;;;;1.52;1.10;;;;;;;28.37;32.91;99279.41;5104592;28;20051;-84
2022/09/05 12:08:30;;;;;;;3.15;1.00;;;;;;;28.43;33.52;99275.38;5108335;28;20055;-84
2022/09/05 12:11:14;;;;;;;2.28;1.05;;;;;;;28.59;33.02;99267.63;5104201;28;20453;-85
2022/09/05 12:13:47;;;;;;;2.25;1.10;;;;;;;29.03;30.67;99268.38;5110313;28;20047;-85
2022/09/05 12:16:34;;;;;;;0.98;0.95;;;;;;;29.06;28.77;99243.41;5108451;28;20040;-85
2022/09/05 12:19:11;;;;;;;1.40;1.20;;;;;;;29.21;28.84;99250.72;5111230;28;20039;-86
2022/09/05 12:21:52;;;;;;;1.20;0.95;;;;;;;29.37;28.56;99262.47;5110603;28;20051;-84
2022/09/05 12:24:27;;;;;;;2.03;0.93;;;;;;;29.64;28.23;99258.06;5110024;28;20047;-84
2022/09/05 12:26:59;;;;;;;0.77;0.77;;;;;;;29.42;28.09;99239.19;5103625;28;20047;-84
2022/09/05 12:29:28;;;;;;;2.65;1.20;;;;;;;29.45;28.21;99255.34;5109276;28;20107;-84
2022/09/05 12:31:59;;;;;;;1.50;1.00;;;;;;;29.61;27.77;99242.72;5110501;28;20402;-84